createdAt,value
2019-01-16T00:02:04.196Z,5.47
2019-01-16T00:05:04.173Z,5.20
2019-01-16T00:07:47.006Z,6.07
2019-01-16T00:10:32.593Z,5.20
2019-01-16T00:13:12.519Z,5.13
2019-01-16T00:15:56.646Z,5.50
2019-01-16T00:18:56.664Z,5.70
2019-01-16T00:21:47.733Z,5.67
2019-01-16T00:24:54.135Z,5.97
2019-01-16T00:27:36.026Z,5.10
2019-01-16T00:30:24.153Z,5.27
2019-01-16T00:33:21.415Z,5.13
2019-01-16T00:36:02.534Z,5.07
2019-01-16T00:38:59.771Z,5.43
2019-01-16T00:41:46.810Z,4.70
2019-01-16T00:44:35.090Z,5.30
2019-01-16T00:47:26.165Z,5.50
2019-01-16T00:50:13.050Z,4.90
2019-01-16T00:53:19.753Z,4.73
2019-01-16T00:56:01.556Z,5.40
2019-01-16T00:58:38.247Z,4.40
2019-01-16T01:01:18.308Z,5.40
2019-01-16T01:04:21.755Z,4.87
2019-01-16T01:07:08.501Z,5.37
2019-01-16T01:09:46.726Z,4.80
2019-01-16T01:12:37.650Z,4.73
2019-01-16T01:15:27.127Z,5.10
2019-01-16T01:18:23.233Z,4.83
2019-01-16T01:21:17.250Z,5.07
2019-01-16T01:24:05.971Z,4.37
2019-01-16T01:27:12.431Z,4.80
2019-01-16T01:29:52.227Z,4.40
2019-01-16T01:32:32.619Z,4.30
2019-01-16T01:35:33.757Z,5.03
2019-01-16T01:38:40.204Z,4.67
2019-01-16T01:41:27.674Z,4.77
2019-01-16T01:44:04.291Z,4.80
2019-01-16T01:47:02.097Z,4.40
2019-01-16T01:50:05.716Z,4.63
2019-01-16T01:52:53.721Z,4.30
2019-01-16T01:55:40.127Z,4.50
2019-01-16T01:58:26.799Z,4.13
2019-01-16T02:01:14.316Z,4.13
2019-01-16T02:04:20.895Z,4.07
2019-01-16T02:07:14.935Z,5.07
2019-01-16T02:10:09.467Z,4.47
2019-01-16T02:12:52.039Z,4.23
2019-01-16T02:15:55.547Z,4.93
2019-01-16T02:18:47.344Z,4.60
2019-01-16T02:21:31.743Z,5.07
2019-01-16T02:24:18.336Z,4.70
2019-01-16T02:27:05.306Z,4.67
2019-01-16T02:30:02.683Z,5.20
2019-01-16T02:33:06.092Z,5.93
2019-01-16T02:36:03.329Z,4.27
2019-01-16T02:39:09.703Z,4.97
2019-01-16T02:41:56.116Z,5.30
2019-01-16T02:44:43.076Z,4.80
2019-01-16T02:47:37.198Z,5.40
2019-01-16T02:50:38.159Z,4.60
2019-01-16T02:53:29.748Z,4.83
2019-01-16T02:56:14.781Z,5.10
2019-01-16T02:58:50.555Z,4.50
2019-01-16T03:01:28.137Z,5.20
2019-01-16T03:04:14.847Z,4.87
2019-01-16T03:07:00.611Z,6.03
2019-01-16T03:10:06.818Z,5.03
2019-01-16T03:13:14.093Z,5.37
2019-01-16T03:16:00.908Z,4.90
2019-01-16T03:19:04.267Z,4.93
2019-01-16T03:21:55.450Z,4.93
2019-01-16T03:24:36.088Z,4.77
2019-01-16T03:27:13.930Z,5.00
2019-01-16T03:30:11.029Z,4.90
2019-01-16T03:32:53.351Z,6.40
2019-01-16T03:35:40.728Z,5.50
2019-01-16T03:38:34.690Z,5.27
2019-01-16T03:41:26.034Z,5.90
2019-01-16T03:44:14.346Z,5.93
2019-01-16T03:46:58.791Z,6.40
2019-01-16T03:49:46.886Z,6.03
2019-01-16T03:52:40.988Z,6.20
2019-01-16T03:55:31.550Z,6.07
2019-01-16T03:58:34.879Z,5.77
2019-01-16T04:01:13.758Z,5.67
2019-01-16T04:03:58.078Z,5.93
2019-01-16T04:07:01.186Z,5.93
2019-01-16T04:10:01.410Z,4.90
2019-01-16T04:12:48.240Z,5.60
2019-01-16T04:15:39.368Z,5.80
2019-01-16T04:18:23.704Z,7.50
2019-01-16T04:21:09.877Z,5.90
2019-01-16T04:24:07.042Z,7.30
2019-01-16T04:26:55.389Z,8.10
2019-01-16T04:29:40.761Z,7.63
2019-01-16T04:32:27.653Z,7.63
2019-01-16T04:35:15.635Z,7.57
2019-01-16T04:38:10.307Z,7.60
2019-01-16T04:40:55.590Z,8.67
2019-01-16T04:43:34.572Z,9.10
2019-01-16T04:46:34.923Z,8.57
2019-01-16T04:49:35.888Z,6.87
2019-01-16T04:52:24.004Z,8.97
2019-01-16T04:55:03.252Z,8.07
2019-01-16T04:57:57.229Z,8.70
2019-01-16T05:00:43.911Z,8.73
2019-01-16T05:03:30.725Z,9.07
2019-01-16T05:06:18.246Z,8.50
2019-01-16T05:09:06.394Z,9.00
2019-01-16T05:11:49.979Z,8.00
2019-01-16T05:14:40.605Z,8.20
2019-01-16T05:17:24.493Z,9.30
2019-01-16T05:20:12.567Z,8.60
2019-01-16T05:22:59.610Z,9.50
2019-01-16T05:25:50.805Z,8.80
2019-01-16T05:28:54.156Z,8.93
2019-01-16T05:31:41.066Z,8.93
2019-01-16T05:34:35.074Z,8.73
2019-01-16T05:37:15.921Z,9.70
2019-01-16T05:40:00.747Z,8.40
2019-01-16T05:42:47.659Z,9.10
2019-01-16T05:45:34.801Z,10.03
2019-01-16T05:48:18.172Z,8.43
2019-01-16T05:51:09.389Z,9.27
2019-01-16T05:54:02.468Z,9.43
2019-01-16T05:57:08.810Z,9.90
2019-01-16T06:00:09.122Z,10.00
2019-01-16T06:03:15.901Z,9.17
2019-01-16T06:06:06.672Z,9.57
2019-01-16T06:08:54.842Z,10.00
2019-01-16T06:11:41.960Z,9.80
2019-01-16T06:14:19.615Z,9.67
2019-01-16T06:17:06.469Z,9.30
2019-01-16T06:20:00.495Z,9.37
2019-01-16T06:22:56.974Z,9.50
2019-01-16T06:25:35.679Z,10.30
2019-01-16T06:28:42.042Z,9.30
2019-01-16T06:31:42.139Z,9.43
2019-01-16T06:34:39.540Z,10.27
2019-01-16T06:37:40.159Z,11.80
2019-01-16T06:40:32.494Z,10.37
2019-01-16T06:43:19.044Z,10.83
2019-01-16T06:45:57.749Z,11.07
2019-01-16T06:48:44.691Z,10.40
2019-01-16T06:51:45.046Z,11.80
2019-01-16T06:54:33.193Z,10.00
2019-01-16T06:57:36.482Z,10.97
2019-01-16T07:00:26.562Z,9.77
2019-01-16T07:03:13.769Z,10.67
2019-01-16T07:06:10.999Z,11.30
2019-01-16T07:08:57.716Z,10.60
2019-01-16T07:11:51.756Z,11.10
2019-01-16T07:14:38.743Z,10.37
2019-01-16T07:17:17.328Z,10.50
2019-01-16T07:20:11.439Z,9.93
2019-01-16T07:23:02.207Z,9.90
2019-01-16T07:25:56.643Z,10.80
2019-01-16T07:28:51.013Z,10.20
2019-01-16T07:31:38.161Z,10.07
2019-01-16T07:34:27.723Z,10.23
2019-01-16T07:37:14.589Z,11.17
2019-01-16T07:40:02.903Z,9.27
2019-01-16T07:43:03.331Z,9.50
2019-01-16T07:45:50.092Z,9.90
2019-01-16T07:48:44.342Z,8.90
2019-01-16T07:51:47.474Z,8.23
2019-01-16T07:54:42.110Z,8.80
2019-01-16T07:57:22.578Z,8.20
2019-01-16T08:00:03.324Z,8.60
2019-01-16T08:03:01.586Z,9.47
2019-01-16T08:05:48.438Z,8.57
2019-01-16T08:08:36.590Z,10.20
2019-01-16T08:11:34.420Z,9.30
2019-01-16T08:14:27.603Z,10.30
2019-01-16T08:17:24.711Z,8.50
2019-01-16T08:20:13.449Z,8.90
2019-01-16T08:23:19.510Z,8.23
2019-01-16T08:26:07.593Z,9.50
2019-01-16T08:29:02.038Z,8.63
2019-01-16T08:31:50.188Z,9.43
2019-01-16T08:34:36.738Z,9.97
2019-01-16T08:37:32.091Z,10.20
2019-01-16T08:40:14.981Z,10.63
2019-01-16T08:43:18.428Z,10.40
2019-01-16T08:46:18.725Z,12.13
2019-01-16T08:49:11.630Z,14.63
2019-01-16T08:52:11.987Z,14.80
2019-01-16T08:54:57.123Z,16.60
2019-01-16T08:57:54.094Z,12.70
2019-01-16T09:00:44.875Z,13.20
2019-01-16T09:03:48.176Z,13.27
2019-01-16T09:06:30.078Z,10.63
2019-01-16T09:09:13.888Z,11.90
2019-01-16T09:12:02.243Z,10.77
2019-01-16T09:14:50.318Z,11.50
2019-01-16T09:17:37.532Z,11.50
2019-01-16T09:20:44.295Z,11.20
2019-01-16T09:23:31.618Z,10.30
2019-01-16T09:26:25.711Z,9.83
2019-01-16T09:29:22.937Z,10.00
2019-01-16T09:32:03.126Z,9.93
2019-01-16T09:34:47.059Z,8.80
2019-01-16T09:37:47.324Z,10.43
2019-01-16T09:40:32.315Z,10.10
2019-01-16T09:43:19.434Z,9.17
2019-01-16T09:46:06.498Z,9.03
2019-01-16T09:49:03.844Z,9.47
2019-01-16T09:51:52.489Z,10.63
2019-01-16T09:54:43.359Z,9.80
2019-01-16T09:57:30.222Z,9.10
2019-01-16T10:00:16.889Z,9.13
2019-01-16T10:03:03.560Z,9.27
2019-01-16T10:05:53.930Z,9.50
2019-01-16T10:08:37.691Z,8.60
2019-01-16T10:11:34.231Z,8.50
2019-01-16T10:14:21.061Z,9.60
2019-01-16T10:17:09.222Z,8.30
2019-01-16T10:20:06.201Z,7.90
2019-01-16T10:23:06.649Z,8.97
2019-01-16T10:25:44.616Z,7.70
2019-01-16T10:28:45.920Z,8.70
2019-01-16T10:31:49.091Z,8.53
2019-01-16T10:34:52.317Z,8.60
2019-01-16T10:37:40.537Z,8.00
2019-01-16T10:40:22.555Z,7.93
2019-01-16T10:43:13.377Z,7.40
2019-01-16T10:45:53.303Z,8.43
2019-01-16T10:48:50.603Z,8.70
2019-01-16T10:51:54.077Z,8.00
2019-01-16T10:54:40.970Z,9.23
2019-01-16T10:57:41.504Z,7.73
2019-01-16T11:00:41.649Z,8.57
2019-01-16T11:03:21.767Z,8.33
2019-01-16T11:06:08.439Z,8.03
2019-01-16T11:08:55.007Z,7.93
2019-01-16T11:11:38.159Z,8.77
2019-01-16T11:14:25.195Z,7.00
2019-01-16T11:17:12.303Z,8.80
2019-01-16T11:20:01.184Z,7.80
2019-01-16T11:23:02.631Z,7.80
2019-01-16T11:25:59.692Z,8.00
2019-01-16T11:28:50.762Z,8.40
2019-01-16T11:31:45.348Z,7.50
2019-01-16T11:34:33.587Z,8.30
2019-01-16T11:37:34.566Z,7.23
2019-01-16T11:40:39.679Z,7.30
2019-01-16T11:43:17.879Z,7.60
2019-01-16T11:46:04.919Z,7.77
2019-01-16T11:49:01.866Z,7.93
2019-01-16T11:51:49.054Z,6.80
2019-01-16T11:54:37.183Z,7.77
2019-01-16T11:57:24.009Z,7.10
2019-01-16T12:00:12.377Z,7.80
2019-01-16T12:02:51.117Z,6.27
2019-01-16T12:05:42.716Z,6.47
2019-01-16T12:08:31.452Z,6.50
2019-01-16T12:11:15.710Z,8.27
2019-01-16T12:14:03.883Z,6.03
2019-01-16T12:17:10.176Z,6.97
2019-01-16T12:20:01.184Z,6.97
2019-01-16T12:23:01.637Z,8.77
2019-01-16T12:25:41.522Z,7.23
2019-01-16T12:28:35.514Z,6.77
2019-01-16T12:31:13.498Z,7.33
2019-01-16T12:34:07.586Z,6.30
2019-01-16T12:36:48.670Z,8.33
2019-01-16T12:39:49.029Z,9.97
2019-01-16T12:42:37.241Z,8.10
2019-01-16T12:45:43.977Z,7.90
2019-01-16T12:48:37.619Z,9.00
2019-01-16T12:51:25.956Z,8.33
2019-01-16T12:54:13.944Z,7.47
2019-01-16T12:57:08.213Z,7.03
2019-01-16T12:59:50.098Z,7.20
2019-01-16T13:02:34.422Z,6.63
2019-01-16T13:05:21.682Z,6.47
2019-01-16T13:08:13.010Z,6.33
2019-01-16T13:11:05.354Z,6.37
2019-01-16T13:14:08.787Z,7.20
2019-01-16T13:17:03.472Z,6.00
2019-01-16T13:19:51.675Z,7.03
2019-01-16T13:22:46.015Z,7.33
2019-01-16T13:25:31.126Z,6.97
2019-01-16T13:28:14.512Z,7.17
2019-01-16T13:31:08.594Z,7.90
2019-01-16T13:33:50.936Z,7.00
2019-01-16T13:36:48.377Z,8.00
2019-01-16T13:39:42.973Z,7.37
2019-01-16T13:42:40.075Z,7.07
2019-01-16T13:45:34.626Z,6.40
2019-01-16T13:48:22.806Z,6.70
2019-01-16T13:51:19.910Z,6.10
2019-01-16T13:54:27.092Z,7.27
2019-01-16T13:57:15.254Z,7.37
2019-01-16T14:00:06.244Z,6.03
2019-01-16T14:02:44.731Z,6.83
2019-01-16T14:05:22.311Z,6.50
2019-01-16T14:08:09.026Z,6.90
2019-01-16T14:11:05.935Z,6.23
2019-01-16T14:13:53.953Z,6.10
2019-01-16T14:16:41.067Z,6.00
2019-01-16T14:19:29.527Z,5.97
2019-01-16T14:22:26.661Z,6.03
2019-01-16T14:25:17.699Z,5.33
2019-01-16T14:28:17.842Z,6.63
2019-01-16T14:31:23.947Z,6.90
2019-01-16T14:34:07.422Z,6.93
2019-01-16T14:36:58.400Z,6.97
2019-01-16T14:39:48.211Z,6.23
2019-01-16T14:42:30.241Z,5.90
2019-01-16T14:45:17.731Z,6.13
2019-01-16T14:47:58.449Z,6.00
2019-01-16T14:50:32.813Z,6.30
2019-01-16T14:53:27.112Z,6.03
2019-01-16T14:56:13.988Z,5.80
2019-01-16T14:58:57.778Z,7.00
2019-01-16T15:01:57.031Z,6.70
2019-01-16T15:04:44.371Z,5.57
2019-01-16T15:07:35.464Z,6.43
2019-01-16T15:10:19.675Z,6.70
2019-01-16T15:13:06.718Z,5.23
2019-01-16T15:16:00.978Z,5.93
2019-01-16T15:18:47.933Z,6.67
2019-01-16T15:21:31.116Z,4.90
2019-01-16T15:24:32.134Z,6.30
2019-01-16T15:27:11.893Z,6.37
2019-01-16T15:30:05.497Z,5.30
2019-01-16T15:32:52.579Z,5.87
2019-01-16T15:35:43.366Z,5.87
2019-01-16T15:38:31.390Z,5.80
2019-01-16T15:41:25.743Z,5.47
2019-01-16T15:44:20.451Z,5.20
2019-01-16T15:47:21.474Z,5.50
2019-01-16T15:50:08.301Z,5.13
2019-01-16T15:52:55.004Z,5.33
2019-01-16T15:55:34.754Z,6.30
2019-01-16T15:58:13.716Z,6.97
2019-01-16T16:00:58.726Z,6.27
2019-01-16T16:03:51.226Z,6.03
2019-01-16T16:06:39.266Z,6.00
2019-01-16T16:09:30.813Z,6.77
2019-01-16T16:12:17.560Z,6.50
2019-01-16T16:14:56.671Z,7.33
2019-01-16T16:17:54.676Z,8.20
2019-01-16T16:20:41.802Z,7.77
2019-01-16T16:23:38.589Z,7.10
2019-01-16T16:26:26.630Z,6.23
2019-01-16T16:29:26.785Z,6.90
2019-01-16T16:32:27.309Z,8.17
2019-01-16T16:35:14.349Z,8.33
2019-01-16T16:38:21.591Z,9.73
2019-01-16T16:41:02.097Z,9.63
2019-01-16T16:43:58.969Z,10.07
2019-01-16T16:46:59.232Z,9.20
2019-01-16T16:49:46.284Z,9.43
2019-01-16T16:52:29.425Z,9.10
2019-01-16T16:55:26.573Z,11.17
2019-01-16T16:58:13.811Z,12.00
2019-01-16T17:01:20.838Z,11.90
2019-01-16T17:04:07.743Z,10.60
2019-01-16T17:06:50.516Z,13.50
2019-01-16T17:09:32.711Z,12.87
2019-01-16T17:12:36.613Z,11.03
2019-01-16T17:15:21.834Z,12.57
2019-01-16T17:17:59.868Z,11.97
2019-01-16T17:20:53.862Z,11.70
2019-01-16T17:23:42.210Z,10.13
2019-01-16T17:26:42.641Z,11.13
2019-01-16T17:29:45.992Z,11.37
2019-01-16T17:32:32.149Z,11.73
2019-01-16T17:35:23.519Z,10.57
2019-01-16T17:38:23.774Z,11.10
2019-01-16T17:41:30.554Z,11.57
2019-01-16T17:44:33.914Z,10.23
2019-01-16T17:47:30.613Z,9.63
2019-01-16T17:50:18.800Z,11.73
2019-01-16T17:53:09.655Z,13.70
2019-01-16T17:55:57.153Z,13.10
2019-01-16T17:59:00.597Z,11.17
2019-01-16T18:01:48.755Z,10.07
2019-01-16T18:04:35.611Z,18.30
2019-01-16T18:07:22.870Z,13.87
2019-01-16T18:10:10.147Z,15.70
2019-01-16T18:12:58.317Z,15.50
2019-01-16T18:15:49.370Z,19.07
2019-01-16T18:18:40.683Z,16.20
2019-01-16T18:21:27.694Z,17.57
2019-01-16T18:24:15.737Z,15.00
2019-01-16T18:27:19.321Z,12.50
2019-01-16T18:30:05.921Z,10.23
2019-01-16T18:32:53.114Z,9.90
2019-01-16T18:35:43.725Z,11.10
2019-01-16T18:38:41.067Z,11.10
2019-01-16T18:41:29.084Z,14.83
2019-01-16T18:44:17.311Z,17.23
2019-01-16T18:46:58.861Z,18.83
2019-01-16T18:49:45.796Z,17.80
2019-01-16T18:52:34.556Z,14.37
2019-01-16T18:55:19.204Z,15.70
2019-01-16T18:58:01.549Z,14.70
2019-01-16T19:00:51.511Z,17.60
2019-01-16T19:03:45.659Z,20.30
2019-01-16T19:06:40.210Z,18.50
2019-01-16T19:09:38.278Z,17.33
2019-01-16T19:12:32.436Z,19.33
2019-01-16T19:15:08.377Z,18.97
2019-01-16T19:17:49.191Z,23.40
2019-01-16T19:20:39.583Z,21.50
2019-01-16T19:23:37.027Z,19.03
2019-01-16T19:26:43.158Z,21.43
2019-01-16T19:29:23.314Z,21.90
2019-01-16T19:32:14.888Z,19.23
2019-01-16T19:35:01.629Z,20.53
2019-01-16T19:37:58.782Z,22.17
2019-01-16T19:40:46.484Z,21.43
2019-01-16T19:43:39.232Z,23.80
2019-01-16T19:46:30.605Z,22.43
2019-01-16T19:49:35.783Z,23.17
2019-01-16T19:55:27.494Z,23.80
2019-01-16T19:58:19.612Z,20.37
2019-01-16T20:01:09.617Z,20.40
2019-01-16T20:03:51.107Z,22.37
2019-01-16T20:06:32.417Z,24.90
2019-01-16T20:09:19.176Z,25.30
2019-01-16T20:12:02.574Z,22.13
2019-01-16T20:14:49.832Z,24.50
2019-01-16T20:17:42.878Z,24.00
2019-01-16T20:20:34.085Z,21.67
2019-01-16T20:23:20.845Z,21.60
2019-01-16T20:26:09.153Z,19.57
2019-01-16T20:29:05.585Z,20.17
2019-01-16T20:32:05.902Z,21.53
2019-01-16T20:34:55.923Z,21.63
2019-01-16T20:37:47.087Z,22.13
2019-01-16T20:40:37.970Z,20.30
2019-01-16T20:43:24.726Z,19.90
2019-01-16T20:46:22.987Z,19.43
2019-01-16T20:49:17.596Z,19.63
2019-01-16T20:52:05.647Z,19.30
2019-01-16T20:54:59.622Z,18.00
2019-01-16T20:58:00.105Z,19.20
2019-01-16T21:01:07.126Z,17.80
2019-01-16T21:04:07.351Z,16.10
2019-01-16T21:07:04.810Z,17.00
2019-01-16T21:09:55.052Z,17.60
2019-01-16T21:12:38.810Z,21.17
2019-01-16T21:15:29.161Z,18.63
2019-01-16T21:18:16.018Z,20.33
2019-01-16T21:21:03.163Z,19.30
2019-01-16T21:23:51.372Z,18.57
2019-01-16T21:26:42.522Z,21.27
2019-01-16T21:29:29.539Z,25.40
2019-01-16T21:32:20.896Z,28.20
2019-01-16T21:35:10.405Z,26.47
2019-01-16T21:38:03.918Z,27.80
2019-01-16T21:41:04.212Z,20.10
2019-01-16T21:43:50.917Z,15.63
2019-01-16T21:46:38.048Z,17.10
2019-01-16T21:49:31.230Z,19.23
2019-01-16T21:52:18.048Z,18.40
2019-01-16T21:54:55.610Z,21.30
2019-01-16T21:57:46.742Z,21.40
2019-01-16T22:00:36.497Z,23.53
2019-01-16T22:03:14.373Z,25.83
2019-01-16T22:06:02.449Z,29.07
2019-01-16T22:09:15.003Z,22.03
2019-01-16T22:11:57.010Z,25.37
2019-01-16T22:14:54.066Z,21.50
2019-01-16T22:17:50.971Z,20.60
2019-01-16T22:20:31.283Z,22.23
2019-01-16T22:23:18.180Z,19.37
2019-01-16T22:25:59.502Z,20.57
2019-01-16T22:28:44.358Z,20.20
2019-01-16T22:31:32.864Z,25.20
2019-01-16T22:34:16.562Z,27.23
2019-01-16T22:37:08.901Z,24.37
2019-01-16T22:40:08.587Z,26.23
2019-01-16T22:42:55.697Z,21.73
2019-01-16T22:45:40.915Z,25.03
2019-01-16T22:48:35.025Z,29.50
2019-01-16T22:51:35.590Z,24.90
2019-01-16T22:54:30.081Z,25.73
2019-01-16T22:57:24.321Z,24.77
2019-01-16T23:00:11.055Z,25.00
2019-01-16T23:02:48.161Z,25.33
2019-01-16T23:05:39.301Z,24.50
2019-01-16T23:08:24.623Z,24.03
2019-01-16T23:11:15.679Z,23.17
2019-01-16T23:14:12.800Z,22.50
2019-01-16T23:17:19.933Z,21.37
2019-01-16T23:20:07.956Z,22.27
2019-01-16T23:22:52.485Z,19.90
2019-01-16T23:25:33.873Z,19.90
2019-01-16T23:28:21.155Z,20.37
2019-01-16T23:31:15.268Z,21.57
2019-01-16T23:34:04.474Z,20.40
2019-01-16T23:36:51.366Z,21.10
2019-01-16T23:39:48.247Z,20.13
2019-01-16T23:42:47.072Z,22.70
2019-01-16T23:45:33.910Z,22.60
2019-01-16T23:48:34.259Z,22.87
2019-01-16T23:51:21.149Z,22.63
2019-01-16T23:54:01.634Z,20.20
2019-01-16T23:56:53.320Z,20.93
2019-01-16T23:59:40.145Z,21.03
